Terminal Aerodrome Forecast
Issued by NWS Omaha/Valley, NE

Home | Current Version | Previous Version | Text Only | Print | Product List | Glossary On
Versions: 1 2 3 4 5 6 7 8 9 10 11 12 13 14 15 16 17 18 19 20 21 22 23 24 25 26 27 28 29 30 31 32 33 34
000
FTUS43 KOAX 050057 AAA
TAFOMA
TAF AMD
KOMA 050057Z 0501/0524 10007KT P6SM SCT040 BKN250
     FM050200 09007KT P6SM VCTS SCT040CB BKN100
     FM050400 10005KT P6SM SCT080 OVC150
     FM051100 12006KT 5SM BR OVC150
     FM051400 13007KT P6SM OVC150
     FM051800 14008KT P6SM BKN250=

USA.gov is the U.S. government's official web portal to all federal, state and local government web resources and services.